sensor_id;sensor_type;location;lat;lon;timestamp;P1;durP1;ratioP1;P2;durP2;ratioP2
75698;SDS011;64313;51.018;13.742;2023-05-02T00:00:28;8.50;;;4.25;;
75698;SDS011;64313;51.018;13.742;2023-05-02T00:02:55;9.02;;;4.65;;
75698;SDS011;64313;51.018;13.742;2023-05-02T00:05:21;8.15;;;4.32;;
75698;SDS011;64313;51.018;13.742;2023-05-02T00:07:46;7.60;;;4.60;;
75698;SDS011;64313;51.018;13.742;2023-05-02T00:10:12;8.60;;;4.95;;
75698;SDS011;64313;51.018;13.742;2023-05-02T00:12:37;7.43;;;3.97;;
75698;SDS011;64313;51.018;13.742;2023-05-02T00:15:03;7.45;;;4.38;;
75698;SDS011;64313;51.018;13.742;2023-05-02T00:17:29;7.50;;;4.07;;
75698;SDS011;64313;51.018;13.742;2023-05-02T00:19:54;7.28;;;4.35;;
75698;SDS011;64313;51.018;13.742;2023-05-02T00:22:19;8.10;;;4.18;;
75698;SDS011;64313;51.018;13.742;2023-05-02T00:24:45;8.65;;;4.10;;
75698;SDS011;64313;51.018;13.742;2023-05-02T00:27:11;8.93;;;4.93;;
75698;SDS011;64313;51.018;13.742;2023-05-02T00:29:38;8.48;;;5.03;;
75698;SDS011;64313;51.018;13.742;2023-05-02T00:32:04;7.75;;;4.82;;
75698;SDS011;64313;51.018;13.742;2023-05-02T00:34:30;9.43;;;5.25;;
75698;SDS011;64313;51.018;13.742;2023-05-02T00:36:55;9.80;;;5.03;;
75698;SDS011;64313;51.018;13.742;2023-05-02T00:39:21;8.82;;;4.80;;
75698;SDS011;64313;51.018;13.742;2023-05-02T00:41:46;7.82;;;4.32;;
75698;SDS011;64313;51.018;13.742;2023-05-02T00:44:12;8.02;;;4.40;;
75698;SDS011;64313;51.018;13.742;2023-05-02T00:46:37;8.10;;;4.32;;
75698;SDS011;64313;51.018;13.742;2023-05-02T00:49:02;7.75;;;4.10;;
75698;SDS011;64313;51.018;13.742;2023-05-02T00:51:28;7.78;;;4.50;;
75698;SDS011;64313;51.018;13.742;2023-05-02T00:53:53;8.07;;;4.30;;
75698;SDS011;64313;51.018;13.742;2023-05-02T00:56:19;7.53;;;4.05;;
75698;SDS011;64313;51.018;13.742;2023-05-02T00:58:44;10.90;;;4.53;;
75698;SDS011;64313;51.018;13.742;2023-05-02T01:01:25;9.55;;;4.53;;
75698;SDS011;64313;51.018;13.742;2023-05-02T01:12:03;8.00;;;4.68;;
75698;SDS011;64313;51.018;13.742;2023-05-02T01:14:35;7.88;;;4.50;;
75698;SDS011;64313;51.018;13.742;2023-05-02T01:17:06;7.25;;;4.00;;
75698;SDS011;64313;51.018;13.742;2023-05-02T01:19:37;7.70;;;3.67;;
75698;SDS011;64313;51.018;13.742;2023-05-02T01:22:06;7.30;;;4.10;;
75698;SDS011;64313;51.018;13.742;2023-05-02T01:24:35;9.48;;;4.43;;
75698;SDS011;64313;51.018;13.742;2023-05-02T01:27:10;8.45;;;5.00;;
75698;SDS011;64313;51.018;13.742;2023-05-02T01:29:45;20.02;;;10.13;;
75698;SDS011;64313;51.018;13.742;2023-05-02T01:32:15;23.50;;;12.95;;
75698;SDS011;64313;51.018;13.742;2023-05-02T01:34:43;27.95;;;16.65;;
75698;SDS011;64313;51.018;13.742;2023-05-02T01:37:11;23.23;;;14.07;;
75698;SDS011;64313;51.018;13.742;2023-05-02T01:39:39;19.73;;;11.40;;
75698;SDS011;64313;51.018;13.742;2023-05-02T01:42:06;14.93;;;9.00;;
75698;SDS011;64313;51.018;13.742;2023-05-02T01:44:32;13.60;;;8.07;;
75698;SDS011;64313;51.018;13.742;2023-05-02T01:47:00;12.23;;;6.22;;
75698;SDS011;64313;51.018;13.742;2023-05-02T01:49:29;9.18;;;5.70;;
75698;SDS011;64313;51.018;13.742;2023-05-02T01:51:57;8.63;;;5.13;;
75698;SDS011;64313;51.018;13.742;2023-05-02T01:54:28;9.10;;;4.75;;
75698;SDS011;64313;51.018;13.742;2023-05-02T01:56:55;8.18;;;4.78;;
75698;SDS011;64313;51.018;13.742;2023-05-02T01:59:22;8.88;;;4.50;;
75698;SDS011;64313;51.018;13.742;2023-05-02T02:01:50;8.07;;;4.20;;
75698;SDS011;64313;51.018;13.742;2023-05-02T02:04:16;7.15;;;4.05;;
75698;SDS011;64313;51.018;13.742;2023-05-02T02:06:51;8.95;;;4.25;;
75698;SDS011;64313;51.018;13.742;2023-05-02T02:09:21;7.55;;;3.97;;
75698;SDS011;64313;51.018;13.742;2023-05-02T02:11:58;7.45;;;4.35;;
75698;SDS011;64313;51.018;13.742;2023-05-02T02:14:34;8.98;;;4.18;;
75698;SDS011;64313;51.018;13.742;2023-05-02T02:17:04;6.78;;;4.13;;
75698;SDS011;64313;51.018;13.742;2023-05-02T02:19:35;7.53;;;4.20;;
75698;SDS011;64313;51.018;13.742;2023-05-02T02:22:02;8.38;;;4.10;;
75698;SDS011;64313;51.018;13.742;2023-05-02T02:24:30;8.20;;;4.28;;
75698;SDS011;64313;51.018;13.742;2023-05-02T02:26:56;7.30;;;4.20;;
75698;SDS011;64313;51.018;13.742;2023-05-02T02:29:22;7.25;;;4.20;;
75698;SDS011;64313;51.018;13.742;2023-05-02T02:31:47;8.07;;;4.47;;
75698;SDS011;64313;51.018;13.742;2023-05-02T02:34:13;7.93;;;4.13;;
75698;SDS011;64313;51.018;13.742;2023-05-02T02:36:46;7.35;;;3.70;;
75698;SDS011;64313;51.018;13.742;2023-05-02T02:42:27;7.20;;;4.07;;
75698;SDS011;64313;51.018;13.742;2023-05-02T02:45:07;8.73;;;4.25;;
75698;SDS011;64313;51.018;13.742;2023-05-02T02:50:30;7.38;;;3.80;;
75698;SDS011;64313;51.018;13.742;2023-05-02T02:58:20;8.57;;;4.45;;
75698;SDS011;64313;51.018;13.742;2023-05-02T03:00:55;7.10;;;4.07;;
75698;SDS011;64313;51.018;13.742;2023-05-02T03:03:21;8.38;;;4.20;;
75698;SDS011;64313;51.018;13.742;2023-05-02T03:05:53;6.97;;;4.05;;
75698;SDS011;64313;51.018;13.742;2023-05-02T03:08:20;6.88;;;4.13;;
75698;SDS011;64313;51.018;13.742;2023-05-02T03:10:46;7.68;;;4.57;;
75698;SDS011;64313;51.018;13.742;2023-05-02T03:13:12;8.38;;;4.18;;
75698;SDS011;64313;51.018;13.742;2023-05-02T03:18:20;7.28;;;4.00;;
75698;SDS011;64313;51.018;13.742;2023-05-02T03:20:45;6.38;;;3.70;;
75698;SDS011;64313;51.018;13.742;2023-05-02T03:23:11;8.43;;;4.18;;
75698;SDS011;64313;51.018;13.742;2023-05-02T03:25:38;8.27;;;3.95;;
75698;SDS011;64313;51.018;13.742;2023-05-02T03:28:04;6.00;;;3.72;;
75698;SDS011;64313;51.018;13.742;2023-05-02T03:30:30;6.72;;;3.58;;
75698;SDS011;64313;51.018;13.742;2023-05-02T03:32:55;7.97;;;4.47;;
75698;SDS011;64313;51.018;13.742;2023-05-02T03:35:21;7.70;;;3.75;;
75698;SDS011;64313;51.018;13.742;2023-05-02T03:37:48;6.68;;;3.65;;
75698;SDS011;64313;51.018;13.742;2023-05-02T03:40:15;7.00;;;3.70;;
75698;SDS011;64313;51.018;13.742;2023-05-02T03:42:40;7.97;;;4.20;;
75698;SDS011;64313;51.018;13.742;2023-05-02T03:45:16;6.47;;;3.40;;
75698;SDS011;64313;51.018;13.742;2023-05-02T03:47:42;8.05;;;3.75;;
75698;SDS011;64313;51.018;13.742;2023-05-02T03:50:07;7.10;;;3.83;;
75698;SDS011;64313;51.018;13.742;2023-05-02T03:52:33;8.20;;;3.90;;
75698;SDS011;64313;51.018;13.742;2023-05-02T03:54:59;7.65;;;3.33;;
75698;SDS011;64313;51.018;13.742;2023-05-02T03:57:25;6.75;;;3.95;;
75698;SDS011;64313;51.018;13.742;2023-05-02T03:59:54;5.93;;;3.50;;
75698;SDS011;64313;51.018;13.742;2023-05-02T04:02:25;7.25;;;3.55;;
75698;SDS011;64313;51.018;13.742;2023-05-02T04:04:50;7.72;;;4.18;;
75698;SDS011;64313;51.018;13.742;2023-05-02T04:07:18;7.00;;;3.40;;
75698;SDS011;64313;51.018;13.742;2023-05-02T04:09:47;6.13;;;3.67;;
75698;SDS011;64313;51.018;13.742;2023-05-02T04:12:14;7.18;;;3.65;;
75698;SDS011;64313;51.018;13.742;2023-05-02T04:14:42;6.25;;;3.88;;
75698;SDS011;64313;51.018;13.742;2023-05-02T04:17:08;7.28;;;3.50;;
75698;SDS011;64313;51.018;13.742;2023-05-02T04:19:42;7.90;;;4.22;;
75698;SDS011;64313;51.018;13.742;2023-05-02T04:22:09;6.88;;;3.92;;
75698;SDS011;64313;51.018;13.742;2023-05-02T04:24:38;8.85;;;4.07;;
75698;SDS011;64313;51.018;13.742;2023-05-02T04:27:03;6.22;;;3.60;;
75698;SDS011;64313;51.018;13.742;2023-05-02T04:29:30;7.15;;;4.18;;
75698;SDS011;64313;51.018;13.742;2023-05-02T04:31:55;6.55;;;3.55;;
75698;SDS011;64313;51.018;13.742;2023-05-02T04:34:23;7.30;;;4.10;;
75698;SDS011;64313;51.018;13.742;2023-05-02T04:36:49;7.55;;;3.78;;
75698;SDS011;64313;51.018;13.742;2023-05-02T04:39:19;8.20;;;3.70;;
75698;SDS011;64313;51.018;13.742;2023-05-02T04:41:55;7.35;;;3.67;;
75698;SDS011;64313;51.018;13.742;2023-05-02T04:44:22;7.10;;;3.90;;
75698;SDS011;64313;51.018;13.742;2023-05-02T04:46:48;9.30;;;4.03;;
75698;SDS011;64313;51.018;13.742;2023-05-02T04:49:14;6.93;;;3.65;;
75698;SDS011;64313;51.018;13.742;2023-05-02T04:51:39;8.38;;;3.72;;
75698;SDS011;64313;51.018;13.742;2023-05-02T04:54:05;7.82;;;3.72;;
75698;SDS011;64313;51.018;13.742;2023-05-02T04:56:31;6.78;;;3.70;;
75698;SDS011;64313;51.018;13.742;2023-05-02T04:58:56;6.97;;;3.78;;
75698;SDS011;64313;51.018;13.742;2023-05-02T05:01:21;6.45;;;3.22;;
75698;SDS011;64313;51.018;13.742;2023-05-02T05:03:49;8.25;;;3.80;;
75698;SDS011;64313;51.018;13.742;2023-05-02T05:06:15;7.07;;;3.63;;
75698;SDS011;64313;51.018;13.742;2023-05-02T05:08:41;8.73;;;4.00;;
75698;SDS011;64313;51.018;13.742;2023-05-02T05:11:09;6.15;;;3.30;;
75698;SDS011;64313;51.018;13.742;2023-05-02T05:13:35;8.45;;;3.95;;
75698;SDS011;64313;51.018;13.742;2023-05-02T05:16:02;7.15;;;3.70;;
75698;SDS011;64313;51.018;13.742;2023-05-02T05:18:31;7.47;;;3.70;;
75698;SDS011;64313;51.018;13.742;2023-05-02T05:20:56;7.18;;;3.78;;
75698;SDS011;64313;51.018;13.742;2023-05-02T05:23:22;7.43;;;3.80;;
75698;SDS011;64313;51.018;13.742;2023-05-02T05:25:47;6.40;;;3.30;;
75698;SDS011;64313;51.018;13.742;2023-05-02T05:28:15;6.28;;;3.33;;
75698;SDS011;64313;51.018;13.742;2023-05-02T05:30:42;8.65;;;3.60;;
75698;SDS011;64313;51.018;13.742;2023-05-02T05:33:10;7.78;;;3.30;;
75698;SDS011;64313;51.018;13.742;2023-05-02T05:35:36;6.72;;;3.83;;
75698;SDS011;64313;51.018;13.742;2023-05-02T05:38:01;7.05;;;3.42;;
75698;SDS011;64313;51.018;13.742;2023-05-02T05:40:29;6.82;;;3.50;;
75698;SDS011;64313;51.018;13.742;2023-05-02T05:42:56;7.78;;;3.80;;
75698;SDS011;64313;51.018;13.742;2023-05-02T05:45:27;7.25;;;3.55;;
75698;SDS011;64313;51.018;13.742;2023-05-02T05:47:53;8.32;;;3.42;;
75698;SDS011;64313;51.018;13.742;2023-05-02T05:50:19;5.95;;;3.45;;
75698;SDS011;64313;51.018;13.742;2023-05-02T05:52:48;7.35;;;3.85;;
75698;SDS011;64313;51.018;13.742;2023-05-02T05:55:13;6.85;;;3.17;;
75698;SDS011;64313;51.018;13.742;2023-05-02T05:57:38;6.63;;;2.83;;
75698;SDS011;64313;51.018;13.742;2023-05-02T06:00:04;5.53;;;3.15;;
75698;SDS011;64313;51.018;13.742;2023-05-02T06:02:40;8.13;;;3.78;;
75698;SDS011;64313;51.018;13.742;2023-05-02T06:05:06;7.50;;;4.07;;
75698;SDS011;64313;51.018;13.742;2023-05-02T06:07:31;9.98;;;4.13;;
75698;SDS011;64313;51.018;13.742;2023-05-02T06:09:57;6.40;;;3.47;;
75698;SDS011;64313;51.018;13.742;2023-05-02T06:12:22;8.38;;;3.38;;
75698;SDS011;64313;51.018;13.742;2023-05-02T06:14:48;8.63;;;3.42;;
75698;SDS011;64313;51.018;13.742;2023-05-02T06:17:13;7.35;;;3.70;;
75698;SDS011;64313;51.018;13.742;2023-05-02T06:19:39;8.02;;;3.67;;
75698;SDS011;64313;51.018;13.742;2023-05-02T06:22:05;8.80;;;3.60;;
75698;SDS011;64313;51.018;13.742;2023-05-02T06:24:30;8.93;;;3.65;;
75698;SDS011;64313;51.018;13.742;2023-05-02T06:26:55;6.60;;;3.22;;
75698;SDS011;64313;51.018;13.742;2023-05-02T06:29:21;9.55;;;3.42;;
75698;SDS011;64313;51.018;13.742;2023-05-02T06:31:46;7.68;;;3.15;;
75698;SDS011;64313;51.018;13.742;2023-05-02T06:34:11;6.47;;;3.35;;
75698;SDS011;64313;51.018;13.742;2023-05-02T06:36:37;6.50;;;2.92;;
75698;SDS011;64313;51.018;13.742;2023-05-02T06:39:02;8.88;;;3.90;;
75698;SDS011;64313;51.018;13.742;2023-05-02T06:41:27;7.47;;;3.35;;
75698;SDS011;64313;51.018;13.742;2023-05-02T06:43:53;7.00;;;2.95;;
75698;SDS011;64313;51.018;13.742;2023-05-02T06:46:18;6.20;;;3.08;;
75698;SDS011;64313;51.018;13.742;2023-05-02T06:48:44;8.55;;;3.47;;
75698;SDS011;64313;51.018;13.742;2023-05-02T06:51:12;6.57;;;3.13;;
75698;SDS011;64313;51.018;13.742;2023-05-02T06:53:38;7.05;;;3.30;;
75698;SDS011;64313;51.018;13.742;2023-05-02T06:56:04;8.10;;;4.22;;
75698;SDS011;64313;51.018;13.742;2023-05-02T06:58:30;6.45;;;3.10;;
75698;SDS011;64313;51.018;13.742;2023-05-02T07:00:55;8.00;;;2.90;;
75698;SDS011;64313;51.018;13.742;2023-05-02T07:03:21;5.82;;;3.03;;
75698;SDS011;64313;51.018;13.742;2023-05-02T07:05:46;6.38;;;3.03;;
75698;SDS011;64313;51.018;13.742;2023-05-02T07:08:11;6.85;;;2.90;;
75698;SDS011;64313;51.018;13.742;2023-05-02T07:10:37;5.88;;;2.85;;
75698;SDS011;64313;51.018;13.742;2023-05-02T07:13:02;5.95;;;2.60;;
75698;SDS011;64313;51.018;13.742;2023-05-02T07:15:27;5.95;;;2.72;;
75698;SDS011;64313;51.018;13.742;2023-05-02T07:17:53;6.90;;;3.10;;
75698;SDS011;64313;51.018;13.742;2023-05-02T07:20:18;6.15;;;2.53;;
75698;SDS011;64313;51.018;13.742;2023-05-02T07:22:44;6.47;;;2.67;;
75698;SDS011;64313;51.018;13.742;2023-05-02T07:25:09;6.20;;;2.47;;
75698;SDS011;64313;51.018;13.742;2023-05-02T07:27:35;5.97;;;2.55;;
75698;SDS011;64313;51.018;13.742;2023-05-02T07:30:00;6.05;;;2.40;;
75698;SDS011;64313;51.018;13.742;2023-05-02T07:32:25;5.60;;;2.65;;
75698;SDS011;64313;51.018;13.742;2023-05-02T07:34:51;7.00;;;2.10;;
75698;SDS011;64313;51.018;13.742;2023-05-02T07:37:20;4.38;;;2.05;;
75698;SDS011;64313;51.018;13.742;2023-05-02T07:39:46;6.97;;;2.47;;
75698;SDS011;64313;51.018;13.742;2023-05-02T07:42:11;7.85;;;3.00;;
75698;SDS011;64313;51.018;13.742;2023-05-02T07:44:37;8.05;;;2.50;;
75698;SDS011;64313;51.018;13.742;2023-05-02T07:47:02;5.40;;;2.42;;
75698;SDS011;64313;51.018;13.742;2023-05-02T07:49:27;6.35;;;2.40;;
75698;SDS011;64313;51.018;13.742;2023-05-02T07:51:53;5.65;;;2.65;;
75698;SDS011;64313;51.018;13.742;2023-05-02T07:54:19;5.88;;;2.60;;
75698;SDS011;64313;51.018;13.742;2023-05-02T07:59:15;5.47;;;2.75;;
75698;SDS011;64313;51.018;13.742;2023-05-02T08:01:40;8.25;;;3.30;;
75698;SDS011;64313;51.018;13.742;2023-05-02T08:04:06;6.40;;;2.90;;
75698;SDS011;64313;51.018;13.742;2023-05-02T08:06:32;5.30;;;2.58;;
75698;SDS011;64313;51.018;13.742;2023-05-02T08:08:58;6.88;;;2.75;;
75698;SDS011;64313;51.018;13.742;2023-05-02T08:11:23;8.18;;;3.38;;
75698;SDS011;64313;51.018;13.742;2023-05-02T08:13:49;5.60;;;2.92;;
75698;SDS011;64313;51.018;13.742;2023-05-02T08:16:18;6.65;;;2.72;;
75698;SDS011;64313;51.018;13.742;2023-05-02T08:18:44;10.07;;;3.45;;
75698;SDS011;64313;51.018;13.742;2023-05-02T08:21:10;5.45;;;2.90;;
75698;SDS011;64313;51.018;13.742;2023-05-02T08:23:35;7.40;;;3.15;;
75698;SDS011;64313;51.018;13.742;2023-05-02T08:26:01;6.82;;;3.53;;
75698;SDS011;64313;51.018;13.742;2023-05-02T08:28:27;7.43;;;3.53;;
75698;SDS011;64313;51.018;13.742;2023-05-02T08:30:53;5.55;;;2.72;;
75698;SDS011;64313;51.018;13.742;2023-05-02T08:33:18;5.82;;;2.80;;
75698;SDS011;64313;51.018;13.742;2023-05-02T08:35:43;6.45;;;3.17;;
75698;SDS011;64313;51.018;13.742;2023-05-02T08:38:08;8.25;;;3.40;;
75698;SDS011;64313;51.018;13.742;2023-05-02T08:40:34;6.75;;;3.22;;
75698;SDS011;64313;51.018;13.742;2023-05-02T08:43:01;5.57;;;2.75;;
75698;SDS011;64313;51.018;13.742;2023-05-02T08:45:28;6.95;;;2.60;;
75698;SDS011;64313;51.018;13.742;2023-05-02T08:48:01;5.80;;;2.78;;
75698;SDS011;64313;51.018;13.742;2023-05-02T08:50:31;6.25;;;3.25;;
75698;SDS011;64313;51.018;13.742;2023-05-02T08:53:01;5.93;;;2.80;;
75698;SDS011;64313;51.018;13.742;2023-05-02T08:55:28;5.97;;;2.55;;
75698;SDS011;64313;51.018;13.742;2023-05-02T08:57:55;5.32;;;2.40;;
75698;SDS011;64313;51.018;13.742;2023-05-02T09:00:22;4.80;;;2.63;;
75698;SDS011;64313;51.018;13.742;2023-05-02T09:02:54;6.70;;;3.05;;
75698;SDS011;64313;51.018;13.742;2023-05-02T09:05:40;6.70;;;3.17;;
75698;SDS011;64313;51.018;13.742;2023-05-02T09:08:07;5.90;;;2.70;;
75698;SDS011;64313;51.018;13.742;2023-05-02T09:10:36;5.70;;;2.60;;
75698;SDS011;64313;51.018;13.742;2023-05-02T09:16:02;6.57;;;2.60;;
75698;SDS011;64313;51.018;13.742;2023-05-02T09:18:33;6.85;;;3.15;;
75698;SDS011;64313;51.018;13.742;2023-05-02T09:21:04;6.32;;;2.88;;
75698;SDS011;64313;51.018;13.742;2023-05-02T09:26:15;5.70;;;2.40;;
75698;SDS011;64313;51.018;13.742;2023-05-02T09:28:55;7.47;;;3.65;;
75698;SDS011;64313;51.018;13.742;2023-05-02T09:31:22;6.55;;;2.55;;
75698;SDS011;64313;51.018;13.742;2023-05-02T09:33:50;6.85;;;2.53;;
75698;SDS011;64313;51.018;13.742;2023-05-02T09:36:16;8.02;;;3.40;;
75698;SDS011;64313;51.018;13.742;2023-05-02T09:38:43;6.03;;;2.55;;
75698;SDS011;64313;51.018;13.742;2023-05-02T09:41:10;7.85;;;3.83;;
75698;SDS011;64313;51.018;13.742;2023-05-02T09:43:38;7.60;;;3.33;;
75698;SDS011;64313;51.018;13.742;2023-05-02T09:46:05;8.85;;;4.05;;
75698;SDS011;64313;51.018;13.742;2023-05-02T09:48:54;8.43;;;3.40;;
75698;SDS011;64313;51.018;13.742;2023-05-02T09:51:21;8.40;;;4.10;;
75698;SDS011;64313;51.018;13.742;2023-05-02T09:53:47;8.68;;;5.20;;
75698;SDS011;64313;51.018;13.742;2023-05-02T09:56:13;8.15;;;4.50;;
75698;SDS011;64313;51.018;13.742;2023-05-02T09:58:38;10.10;;;4.95;;
75698;SDS011;64313;51.018;13.742;2023-05-02T10:01:04;6.88;;;3.72;;
75698;SDS011;64313;51.018;13.742;2023-05-02T10:03:30;8.15;;;3.40;;
75698;SDS011;64313;51.018;13.742;2023-05-02T10:05:58;7.72;;;3.88;;
75698;SDS011;64313;51.018;13.742;2023-05-02T10:08:25;8.27;;;4.03;;
75698;SDS011;64313;51.018;13.742;2023-05-02T10:10:57;9.18;;;4.85;;
75698;SDS011;64313;51.018;13.742;2023-05-02T10:13:23;13.10;;;4.85;;
75698;SDS011;64313;51.018;13.742;2023-05-02T10:16:04;8.77;;;4.22;;
75698;SDS011;64313;51.018;13.742;2023-05-02T10:18:41;11.00;;;5.05;;
75698;SDS011;64313;51.018;13.742;2023-05-02T10:21:11;8.80;;;4.57;;
75698;SDS011;64313;51.018;13.742;2023-05-02T10:23:40;8.23;;;4.97;;
75698;SDS011;64313;51.018;13.742;2023-05-02T10:26:13;9.20;;;4.43;;
75698;SDS011;64313;51.018;13.742;2023-05-02T10:28:40;10.13;;;4.07;;
75698;SDS011;64313;51.018;13.742;2023-05-02T10:31:08;8.18;;;4.97;;
75698;SDS011;64313;51.018;13.742;2023-05-02T10:33:34;6.97;;;4.00;;
75698;SDS011;64313;51.018;13.742;2023-05-02T10:36:00;9.55;;;4.22;;
75698;SDS011;64313;51.018;13.742;2023-05-02T10:38:26;8.70;;;5.40;;
75698;SDS011;64313;51.018;13.742;2023-05-02T10:40:56;11.07;;;5.93;;
75698;SDS011;64313;51.018;13.742;2023-05-02T10:43:33;10.27;;;4.80;;
75698;SDS011;64313;51.018;13.742;2023-05-02T10:45:59;9.85;;;4.68;;
75698;SDS011;64313;51.018;13.742;2023-05-02T10:48:26;6.10;;;3.92;;
75698;SDS011;64313;51.018;13.742;2023-05-02T10:50:52;8.27;;;4.15;;
75698;SDS011;64313;51.018;13.742;2023-05-02T10:53:23;7.43;;;4.32;;
75698;SDS011;64313;51.018;13.742;2023-05-02T10:58:33;10.65;;;5.97;;
75698;SDS011;64313;51.018;13.742;2023-05-02T11:03:52;7.32;;;4.10;;
75698;SDS011;64313;51.018;13.742;2023-05-02T11:06:21;9.20;;;4.68;;
75698;SDS011;64313;51.018;13.742;2023-05-02T11:08:47;9.32;;;3.88;;
75698;SDS011;64313;51.018;13.742;2023-05-02T11:14:06;9.82;;;5.10;;
75698;SDS011;64313;51.018;13.742;2023-05-02T11:19:23;9.18;;;4.85;;
75698;SDS011;64313;51.018;13.742;2023-05-02T11:21:49;10.52;;;5.75;;
75698;SDS011;64313;51.018;13.742;2023-05-02T11:29:53;13.32;;;5.70;;
75698;SDS011;64313;51.018;13.742;2023-05-02T11:32:20;10.88;;;6.10;;
75698;SDS011;64313;51.018;13.742;2023-05-02T11:34:46;10.75;;;5.93;;
75698;SDS011;64313;51.018;13.742;2023-05-02T11:37:14;9.65;;;4.75;;
75698;SDS011;64313;51.018;13.742;2023-05-02T11:39:40;7.20;;;4.07;;
75698;SDS011;64313;51.018;13.742;2023-05-02T11:42:06;8.38;;;4.28;;
75698;SDS011;64313;51.018;13.742;2023-05-02T11:44:31;7.38;;;3.85;;
75698;SDS011;64313;51.018;13.742;2023-05-02T11:46:57;7.40;;;4.13;;
75698;SDS011;64313;51.018;13.742;2023-05-02T11:49:22;8.95;;;4.88;;
75698;SDS011;64313;51.018;13.742;2023-05-02T11:51:48;8.05;;;4.13;;
75698;SDS011;64313;51.018;13.742;2023-05-02T11:54:19;8.40;;;4.60;;
75698;SDS011;64313;51.018;13.742;2023-05-02T11:56:48;8.05;;;4.95;;
75698;SDS011;64313;51.018;13.742;2023-05-02T11:59:14;9.35;;;4.45;;
75698;SDS011;64313;51.018;13.742;2023-05-02T12:01:51;10.23;;;5.15;;
75698;SDS011;64313;51.018;13.742;2023-05-02T12:04:17;10.02;;;5.57;;
75698;SDS011;64313;51.018;13.742;2023-05-02T12:06:55;8.20;;;3.92;;
75698;SDS011;64313;51.018;13.742;2023-05-02T12:09:21;9.20;;;4.57;;
75698;SDS011;64313;51.018;13.742;2023-05-02T12:11:52;8.02;;;4.45;;
75698;SDS011;64313;51.018;13.742;2023-05-02T12:14:28;9.80;;;5.10;;
75698;SDS011;64313;51.018;13.742;2023-05-02T12:16:55;7.45;;;3.97;;
75698;SDS011;64313;51.018;13.742;2023-05-02T12:19:22;10.90;;;4.63;;
75698;SDS011;64313;51.018;13.742;2023-05-02T12:21:47;8.05;;;3.80;;
75698;SDS011;64313;51.018;13.742;2023-05-02T12:24:13;8.23;;;4.15;;
75698;SDS011;64313;51.018;13.742;2023-05-02T12:26:39;8.05;;;3.60;;
75698;SDS011;64313;51.018;13.742;2023-05-02T12:29:04;6.72;;;4.18;;
75698;SDS011;64313;51.018;13.742;2023-05-02T12:31:32;10.27;;;4.70;;
75698;SDS011;64313;51.018;13.742;2023-05-02T12:33:57;8.23;;;4.13;;
75698;SDS011;64313;51.018;13.742;2023-05-02T12:36:24;6.90;;;3.80;;
75698;SDS011;64313;51.018;13.742;2023-05-02T12:38:51;7.95;;;3.88;;
75698;SDS011;64313;51.018;13.742;2023-05-02T12:41:27;8.68;;;5.57;;
75698;SDS011;64313;51.018;13.742;2023-05-02T12:43:58;7.53;;;3.72;;
75698;SDS011;64313;51.018;13.742;2023-05-02T12:46:24;8.27;;;4.78;;
75698;SDS011;64313;51.018;13.742;2023-05-02T12:49:02;5.88;;;3.25;;
75698;SDS011;64313;51.018;13.742;2023-05-02T12:51:34;8.70;;;5.43;;
75698;SDS011;64313;51.018;13.742;2023-05-02T12:54:00;5.82;;;3.40;;
75698;SDS011;64313;51.018;13.742;2023-05-02T12:56:27;7.20;;;3.72;;
75698;SDS011;64313;51.018;13.742;2023-05-02T12:58:56;8.77;;;5.13;;
75698;SDS011;64313;51.018;13.742;2023-05-02T13:01:24;6.97;;;4.18;;
75698;SDS011;64313;51.018;13.742;2023-05-02T13:03:51;8.68;;;4.28;;
75698;SDS011;64313;51.018;13.742;2023-05-02T13:06:16;8.85;;;4.82;;
75698;SDS011;64313;51.018;13.742;2023-05-02T13:08:42;7.72;;;4.68;;
75698;SDS011;64313;51.018;13.742;2023-05-02T13:11:08;7.03;;;3.65;;
75698;SDS011;64313;51.018;13.742;2023-05-02T13:13:33;6.03;;;3.55;;
75698;SDS011;64313;51.018;13.742;2023-05-02T13:15:59;8.80;;;4.60;;
75698;SDS011;64313;51.018;13.742;2023-05-02T13:18:24;8.85;;;5.20;;
75698;SDS011;64313;51.018;13.742;2023-05-02T13:20:51;6.53;;;4.07;;
75698;SDS011;64313;51.018;13.742;2023-05-02T13:23:17;8.13;;;5.00;;
75698;SDS011;64313;51.018;13.742;2023-05-02T13:25:42;6.60;;;3.65;;
75698;SDS011;64313;51.018;13.742;2023-05-02T13:28:08;6.95;;;4.18;;
75698;SDS011;64313;51.018;13.742;2023-05-02T13:30:33;8.95;;;3.80;;
75698;SDS011;64313;51.018;13.742;2023-05-02T13:32:58;8.93;;;4.95;;
75698;SDS011;64313;51.018;13.742;2023-05-02T13:35:24;6.55;;;4.10;;
75698;SDS011;64313;51.018;13.742;2023-05-02T13:37:50;6.25;;;3.78;;
75698;SDS011;64313;51.018;13.742;2023-05-02T13:40:15;5.63;;;3.42;;
75698;SDS011;64313;51.018;13.742;2023-05-02T13:42:41;5.97;;;3.20;;
75698;SDS011;64313;51.018;13.742;2023-05-02T13:45:06;6.10;;;3.55;;
75698;SDS011;64313;51.018;13.742;2023-05-02T13:47:32;6.55;;;3.78;;
75698;SDS011;64313;51.018;13.742;2023-05-02T13:49:57;6.53;;;3.60;;
75698;SDS011;64313;51.018;13.742;2023-05-02T13:52:23;7.07;;;4.07;;
75698;SDS011;64313;51.018;13.742;2023-05-02T13:54:48;7.32;;;4.20;;
75698;SDS011;64313;51.018;13.742;2023-05-02T13:57:17;6.22;;;3.30;;
75698;SDS011;64313;51.018;13.742;2023-05-02T13:59:42;9.52;;;5.55;;
75698;SDS011;64313;51.018;13.742;2023-05-02T14:02:07;7.30;;;3.88;;
75698;SDS011;64313;51.018;13.742;2023-05-02T14:04:33;7.68;;;4.63;;
75698;SDS011;64313;51.018;13.742;2023-05-02T14:06:58;7.90;;;4.22;;
75698;SDS011;64313;51.018;13.742;2023-05-02T14:09:23;8.43;;;4.05;;
75698;SDS011;64313;51.018;13.742;2023-05-02T14:11:49;10.25;;;5.18;;
75698;SDS011;64313;51.018;13.742;2023-05-02T14:14:14;12.18;;;7.05;;
75698;SDS011;64313;51.018;13.742;2023-05-02T14:16:40;9.15;;;5.25;;
75698;SDS011;64313;51.018;13.742;2023-05-02T14:19:05;8.27;;;4.80;;
75698;SDS011;64313;51.018;13.742;2023-05-02T14:21:31;9.60;;;5.63;;
75698;SDS011;64313;51.018;13.742;2023-05-02T14:23:58;8.98;;;5.30;;
75698;SDS011;64313;51.018;13.742;2023-05-02T14:26:24;7.78;;;4.80;;
75698;SDS011;64313;51.018;13.742;2023-05-02T14:28:50;11.43;;;6.30;;
75698;SDS011;64313;51.018;13.742;2023-05-02T14:31:15;10.18;;;6.20;;
75698;SDS011;64313;51.018;13.742;2023-05-02T14:33:40;9.27;;;4.30;;
75698;SDS011;64313;51.018;13.742;2023-05-02T14:36:06;10.25;;;6.10;;
75698;SDS011;64313;51.018;13.742;2023-05-02T14:38:31;10.15;;;5.97;;
75698;SDS011;64313;51.018;13.742;2023-05-02T14:40:56;10.35;;;6.50;;
75698;SDS011;64313;51.018;13.742;2023-05-02T14:43:22;9.30;;;6.18;;
75698;SDS011;64313;51.018;13.742;2023-05-02T14:45:47;8.88;;;5.25;;
75698;SDS011;64313;51.018;13.742;2023-05-02T14:48:12;9.02;;;5.03;;
75698;SDS011;64313;51.018;13.742;2023-05-02T14:50:38;8.45;;;4.50;;
75698;SDS011;64313;51.018;13.742;2023-05-02T14:53:04;10.95;;;6.47;;
75698;SDS011;64313;51.018;13.742;2023-05-02T14:55:34;9.18;;;5.20;;
75698;SDS011;64313;51.018;13.742;2023-05-02T14:58:00;9.82;;;4.53;;
75698;SDS011;64313;51.018;13.742;2023-05-02T15:00:26;8.10;;;4.25;;
75698;SDS011;64313;51.018;13.742;2023-05-02T15:02:51;8.80;;;3.83;;
75698;SDS011;64313;51.018;13.742;2023-05-02T15:05:16;8.35;;;4.40;;
75698;SDS011;64313;51.018;13.742;2023-05-02T15:07:42;9.05;;;4.10;;
75698;SDS011;64313;51.018;13.742;2023-05-02T15:10:08;7.78;;;3.90;;
75698;SDS011;64313;51.018;13.742;2023-05-02T15:12:33;6.95;;;3.10;;
75698;SDS011;64313;51.018;13.742;2023-05-02T15:14:58;7.63;;;3.60;;
75698;SDS011;64313;51.018;13.742;2023-05-02T15:17:24;6.35;;;3.22;;
75698;SDS011;64313;51.018;13.742;2023-05-02T15:19:49;7.55;;;3.65;;